createdAt,value
2018-04-29T00:00:05.328Z,0
2018-04-29T00:01:13.976Z,0
2018-04-29T00:02:22.606Z,0
2018-04-29T00:03:31.259Z,0
2018-04-29T00:04:39.911Z,0
2018-04-29T00:05:49.065Z,0
2018-04-29T00:06:57.715Z,0
2018-04-29T00:08:06.370Z,0
2018-04-29T00:09:15.002Z,0
2018-04-29T00:10:23.641Z,0
2018-04-29T00:11:32.298Z,0
2018-04-29T00:12:40.938Z,0
2018-04-29T00:13:49.840Z,0
2018-04-29T00:14:58.499Z,0
2018-04-29T00:16:07.140Z,0
2018-04-29T00:17:15.780Z,0
2018-04-29T00:18:24.428Z,0
2018-04-29T00:19:33.076Z,0
2018-04-29T00:20:41.723Z,0
2018-04-29T00:21:50.633Z,0
2018-04-29T00:22:59.268Z,0
2018-04-29T00:24:07.925Z,0
2018-04-29T00:25:16.564Z,0
2018-04-29T00:26:25.198Z,0
2018-04-29T00:27:34.126Z,0
2018-04-29T00:28:42.772Z,0
2018-04-29T00:29:51.409Z,0
2018-04-29T00:31:00.056Z,0
2018-04-29T00:32:08.707Z,0
2018-04-29T00:33:17.602Z,0
2018-04-29T00:34:26.252Z,0
2018-04-29T00:35:34.883Z,0
2018-04-29T00:36:43.543Z,0
2018-04-29T00:37:52.186Z,0
2018-04-29T00:39:00.821Z,0
2018-04-29T00:40:09.472Z,0
2018-04-29T00:41:18.126Z,0
2018-04-29T00:42:27.018Z,0
2018-04-29T00:43:35.663Z,0
2018-04-29T00:44:44.319Z,0
2018-04-29T00:45:52.952Z,0
2018-04-29T00:47:01.593Z,0
2018-04-29T00:48:10.248Z,0
2018-04-29T00:49:18.887Z,0
2018-04-29T00:50:27.539Z,0
2018-04-29T00:51:36.435Z,0
2018-04-29T00:52:45.080Z,0
2018-04-29T00:53:53.735Z,0
2018-04-29T00:55:02.370Z,0
2018-04-29T00:56:11.011Z,0
2018-04-29T00:57:20.208Z,0
2018-04-29T00:58:28.854Z,0
2018-04-29T00:59:37.489Z,0
2018-04-29T01:00:46.145Z,0
2018-04-29T01:01:54.782Z,0
2018-04-29T01:03:03.682Z,0
2018-04-29T01:04:12.333Z,0
2018-04-29T01:05:20.971Z,0
2018-04-29T01:06:29.628Z,0
2018-04-29T01:07:38.271Z,0
2018-04-29T01:08:46.905Z,0
2018-04-29T01:09:55.561Z,0
2018-04-29T01:11:04.203Z,0
2018-04-29T01:12:13.096Z,0
2018-04-29T01:13:21.751Z,0
2018-04-29T01:14:30.397Z,0
2018-04-29T01:15:39.027Z,0
2018-04-29T01:16:47.680Z,0
2018-04-29T01:17:56.329Z,0
2018-04-29T01:19:04.980Z,0
2018-04-29T01:20:13.619Z,0
2018-04-29T01:21:22.250Z,0
2018-04-29T01:22:30.906Z,0
2018-04-29T01:23:39.557Z,0
2018-04-29T01:24:48.980Z,0
2018-04-29T01:25:57.630Z,0
2018-04-29T01:27:06.280Z,0
2018-04-29T01:28:15.179Z,0
2018-04-29T01:29:23.827Z,0
2018-04-29T01:30:32.748Z,0
2018-04-29T01:31:41.382Z,0
2018-04-29T01:32:50.021Z,0
2018-04-29T01:33:58.664Z,0
2018-04-29T01:35:07.313Z,0
2018-04-29T01:36:16.232Z,0
2018-04-29T01:37:25.123Z,0
2018-04-29T01:38:33.770Z,0
2018-04-29T01:39:42.423Z,0
2018-04-29T01:40:51.057Z,0
2018-04-29T01:41:59.701Z,0
2018-04-29T01:43:08.355Z,0
2018-04-29T01:44:16.994Z,0
2018-04-29T01:45:25.893Z,0
2018-04-29T01:46:34.549Z,0
2018-04-29T01:47:43.447Z,0
2018-04-29T01:48:52.100Z,0
2018-04-29T01:50:00.730Z,0
2018-04-29T01:51:09.375Z,0
2018-04-29T01:52:18.029Z,0
2018-04-29T01:53:26.936Z,0
2018-04-29T01:54:35.572Z,0
2018-04-29T01:55:44.228Z,0
2018-04-29T01:56:52.865Z,0
2018-04-29T01:58:01.497Z,0
2018-04-29T01:59:10.153Z,0
2018-04-29T02:00:18.800Z,0
2018-04-29T02:01:27.430Z,0
2018-04-29T02:02:36.339Z,0
2018-04-29T02:03:44.990Z,0
2018-04-29T02:04:53.624Z,0
2018-04-29T02:06:02.265Z,0
2018-04-29T02:07:10.922Z,0
2018-04-29T02:08:19.821Z,0
2018-04-29T02:09:28.731Z,0
2018-04-29T02:10:37.389Z,0
2018-04-29T02:11:46.025Z,0
2018-04-29T02:12:54.666Z,0
2018-04-29T02:14:03.584Z,0
2018-04-29T02:15:12.484Z,0
2018-04-29T02:16:21.115Z,0
2018-04-29T02:17:30.108Z,0
2018-04-29T02:18:38.756Z,0
2018-04-29T02:19:47.410Z,0
2018-04-29T02:20:56.046Z,0
2018-04-29T02:22:04.681Z,0
2018-04-29T02:23:13.335Z,0
2018-04-29T02:24:21.980Z,0
2018-04-29T02:25:30.608Z,0
2018-04-29T02:26:39.265Z,0
2018-04-29T02:27:48.184Z,0
2018-04-29T02:28:56.818Z,0
2018-04-29T02:30:05.472Z,0
2018-04-29T02:31:14.123Z,0
2018-04-29T02:32:22.764Z,0
2018-04-29T02:33:31.410Z,0
2018-04-29T02:34:40.042Z,0
2018-04-29T02:35:48.968Z,0
2018-04-29T02:36:57.611Z,0
2018-04-29T02:38:06.256Z,0
2018-04-29T02:39:15.192Z,0
2018-04-29T02:40:24.107Z,0
2018-04-29T02:41:32.742Z,0
2018-04-29T02:42:41.385Z,0
2018-04-29T02:43:50.581Z,0
2018-04-29T02:44:59.214Z,0
2018-04-29T02:46:07.859Z,0
2018-04-29T02:47:16.510Z,0
2018-04-29T02:48:25.164Z,0
2018-04-29T02:49:33.815Z,0
2018-04-29T02:50:42.713Z,0
2018-04-29T02:51:51.620Z,0
2018-04-29T02:53:00.273Z,0
2018-04-29T02:54:08.905Z,0
2018-04-29T02:55:17.620Z,0
2018-04-29T02:56:26.213Z,0
2018-04-29T02:57:35.370Z,0
2018-04-29T02:58:44.009Z,0
2018-04-29T02:59:52.666Z,0
2018-04-29T03:01:01.314Z,0
2018-04-29T03:02:10.234Z,0
2018-04-29T03:03:18.865Z,0
2018-04-29T03:04:27.510Z,0
2018-04-29T03:05:36.166Z,0
2018-04-29T03:06:44.804Z,0
2018-04-29T03:07:53.443Z,0
2018-04-29T03:09:02.107Z,0
2018-04-29T03:10:10.741Z,0
2018-04-29T03:11:19.639Z,0
2018-04-29T03:12:28.291Z,0
2018-04-29T03:13:36.940Z,0
2018-04-29T03:14:45.574Z,0
2018-04-29T03:15:54.221Z,0
2018-04-29T03:17:03.123Z,0
2018-04-29T03:18:11.775Z,0
2018-04-29T03:19:20.416Z,0
2018-04-29T03:20:29.043Z,0
2018-04-29T03:21:37.697Z,0
2018-04-29T03:22:46.339Z,0
2018-04-29T03:23:54.973Z,0
2018-04-29T03:25:03.621Z,0
2018-04-29T03:26:12.270Z,0
2018-04-29T03:27:20.904Z,0
2018-04-29T03:28:29.550Z,0
2018-04-29T03:29:38.204Z,0
2018-04-29T03:30:46.839Z,0
2018-04-29T03:31:55.756Z,0
2018-04-29T03:33:04.388Z,0
2018-04-29T03:34:13.308Z,0
2018-04-29T03:35:21.957Z,0
2018-04-29T03:36:30.588Z,0
2018-04-29T03:37:39.229Z,0
2018-04-29T03:38:48.159Z,0
2018-04-29T03:39:57.048Z,0
2018-04-29T03:41:05.690Z,0
2018-04-29T03:42:14.339Z,0
2018-04-29T03:43:22.978Z,0
2018-04-29T03:44:31.612Z,0
2018-04-29T03:45:40.258Z,0
2018-04-29T03:46:48.900Z,0
2018-04-29T03:47:57.819Z,0
2018-04-29T03:49:06.452Z,0
2018-04-29T03:50:15.093Z,0
2018-04-29T03:51:23.750Z,0
2018-04-29T03:52:32.379Z,0
2018-04-29T03:53:41.025Z,0
2018-04-29T03:54:49.674Z,0
2018-04-29T03:55:58.645Z,0
2018-04-29T03:57:07.215Z,0
2018-04-29T03:58:15.867Z,0
2018-04-29T03:59:24.510Z,0
2018-04-29T04:00:33.142Z,0
2018-04-29T04:01:51.281Z,5
2018-04-29T04:03:00.526Z,5
2018-04-29T04:04:09.156Z,5
2018-04-29T04:05:17.799Z,5
2018-04-29T04:06:26.453Z,5
2018-04-29T04:07:35.083Z,5
2018-04-29T04:08:43.728Z,5
2018-04-29T04:09:52.384Z,10
2018-04-29T04:11:01.012Z,10
2018-04-29T04:12:10.192Z,10
2018-04-29T04:13:19.111Z,10
2018-04-29T04:14:27.753Z,10
2018-04-29T04:15:36.399Z,15
2018-04-29T04:16:45.034Z,15
2018-04-29T04:17:53.672Z,15
2018-04-29T04:19:02.335Z,15
2018-04-29T04:20:11.231Z,20
2018-04-29T04:21:19.866Z,20
2018-04-29T04:22:28.517Z,20
2018-04-29T04:23:37.205Z,25
2018-04-29T04:24:45.797Z,25
2018-04-29T04:25:54.455Z,30
2018-04-29T04:27:03.096Z,30
2018-04-29T04:28:11.725Z,30
2018-04-29T04:29:20.374Z,30
2018-04-29T04:30:29.008Z,30
2018-04-29T04:31:37.661Z,35
2018-04-29T04:32:46.302Z,35
2018-04-29T04:33:54.936Z,35
2018-04-29T04:35:03.587Z,40
2018-04-29T04:36:12.495Z,40
2018-04-29T04:37:21.124Z,45
2018-04-29T04:38:29.775Z,45
2018-04-29T04:39:38.690Z,50
2018-04-29T04:40:47.330Z,50
2018-04-29T04:41:55.966Z,50
2018-04-29T04:43:04.626Z,50
2018-04-29T04:44:13.259Z,50
2018-04-29T04:45:21.906Z,50
2018-04-29T04:46:30.804Z,50
2018-04-29T04:47:39.714Z,50
2018-04-29T04:48:48.635Z,50
2018-04-29T04:49:57.263Z,50
2018-04-29T04:51:05.911Z,50
2018-04-29T04:52:14.827Z,50
2018-04-29T04:53:23.459Z,50
2018-04-29T04:54:32.357Z,45
2018-04-29T04:55:41.276Z,45
2018-04-29T04:56:49.911Z,40
2018-04-29T04:57:58.539Z,45
2018-04-29T04:59:07.448Z,45
2018-04-29T05:00:16.366Z,45
2018-04-29T05:01:25.019Z,45
2018-04-29T05:02:33.654Z,50
2018-04-29T05:03:42.289Z,50
2018-04-29T05:04:50.942Z,45
2018-04-29T05:05:59.578Z,45
2018-04-29T05:07:08.214Z,45
2018-04-29T05:08:16.866Z,45
2018-04-29T05:09:25.503Z,50
2018-04-29T05:10:34.134Z,50
2018-04-29T05:11:42.784Z,50
2018-04-29T05:12:51.432Z,55
2018-04-29T05:14:00.339Z,55
2018-04-29T05:15:09.242Z,55
2018-04-29T05:16:17.875Z,60
2018-04-29T05:17:26.529Z,60
2018-04-29T05:18:35.165Z,65
2018-04-29T05:19:43.794Z,65
2018-04-29T05:20:52.447Z,70
2018-04-29T05:22:01.092Z,70
2018-04-29T05:23:09.724Z,70
2018-04-29T05:24:18.369Z,75
2018-04-29T05:25:27.283Z,75
2018-04-29T05:26:35.913Z,85
2018-04-29T05:27:44.556Z,95
2018-04-29T05:28:53.451Z,95
2018-04-29T05:30:02.108Z,105
2018-04-29T05:31:10.748Z,115
2018-04-29T05:32:19.380Z,130
2018-04-29T05:33:28.028Z,145
2018-04-29T05:34:36.679Z,155
2018-04-29T05:35:45.306Z,165
2018-04-29T05:36:54.019Z,170
2018-04-29T05:38:02.605Z,170
2018-04-29T05:39:11.234Z,170
2018-04-29T05:40:19.874Z,165
2018-04-29T05:41:28.529Z,160
2018-04-29T05:42:37.427Z,155
2018-04-29T05:43:46.076Z,150
2018-04-29T05:44:54.708Z,140
2018-04-29T05:46:03.350Z,140
2018-04-29T05:47:12.004Z,135
2018-04-29T05:48:20.637Z,130
2018-04-29T05:49:29.277Z,125
2018-04-29T05:50:37.931Z,125
2018-04-29T05:51:46.570Z,130
2018-04-29T05:52:55.204Z,120
2018-04-29T05:54:03.868Z,120
2018-04-29T05:55:12.512Z,125
2018-04-29T05:56:21.140Z,135
2018-04-29T05:57:29.848Z,125
2018-04-29T05:58:38.439Z,135
2018-04-29T05:59:47.071Z,145
2018-04-29T06:00:55.722Z,150
2018-04-29T06:02:04.371Z,165
2018-04-29T06:03:13.270Z,175
2018-04-29T06:04:21.914Z,175
2018-04-29T06:05:30.571Z,160
2018-04-29T06:06:39.339Z,160
2018-04-29T06:07:48.113Z,180
2018-04-29T06:08:56.768Z,175
2018-04-29T06:10:05.673Z,185
2018-04-29T06:11:14.578Z,190
2018-04-29T06:12:23.227Z,185
2018-04-29T06:13:31.875Z,180
2018-04-29T06:14:40.801Z,200
2018-04-29T06:15:49.434Z,185
2018-04-29T06:16:58.073Z,185
2018-04-29T06:18:06.730Z,160
2018-04-29T06:19:15.628Z,140
2018-04-29T06:20:24.550Z,155
2018-04-29T06:21:33.468Z,135
2018-04-29T06:22:42.111Z,120
2018-04-29T06:23:50.740Z,115
2018-04-29T06:24:59.403Z,120
2018-04-29T06:26:08.093Z,140
2018-04-29T06:27:16.956Z,165
2018-04-29T06:28:25.590Z,160
2018-04-29T06:29:34.230Z,175
2018-04-29T06:30:42.882Z,165
2018-04-29T06:31:51.872Z,170
2018-04-29T06:33:00.423Z,200
2018-04-29T06:34:09.079Z,200
2018-04-29T06:35:17.723Z,205
2018-04-29T06:36:26.355Z,205
2018-04-29T06:37:35.010Z,190
2018-04-29T06:38:43.677Z,185
2018-04-29T06:39:52.568Z,185
2018-04-29T06:41:01.470Z,195
2018-04-29T06:42:10.111Z,185
2018-04-29T06:43:18.765Z,200
2018-04-29T06:44:27.724Z,195
2018-04-29T06:45:36.355Z,190
2018-04-29T06:46:45.095Z,190
2018-04-29T06:47:53.671Z,175
2018-04-29T06:49:02.575Z,170
2018-04-29T06:50:11.219Z,165
2018-04-29T06:51:20.142Z,180
2018-04-29T06:52:28.775Z,180
2018-04-29T06:53:37.423Z,200
2018-04-29T06:54:46.078Z,220
2018-04-29T06:55:54.716Z,240
2018-04-29T06:57:03.370Z,285
2018-04-29T06:58:12.004Z,295
2018-04-29T06:59:20.654Z,280
2018-04-29T07:00:29.311Z,220
2018-04-29T07:01:37.950Z,195
2018-04-29T07:02:46.592Z,190
2018-04-29T07:03:55.251Z,195
2018-04-29T07:05:03.898Z,195
2018-04-29T07:06:12.535Z,210
2018-04-29T07:07:21.191Z,225
2018-04-29T07:08:29.832Z,240
2018-04-29T07:09:38.468Z,250
2018-04-29T07:10:47.122Z,250
2018-04-29T07:11:55.768Z,275
2018-04-29T07:13:04.424Z,285
2018-04-29T07:14:13.376Z,265
2018-04-29T07:15:22.269Z,320
2018-04-29T07:16:31.190Z,320
2018-04-29T07:17:39.836Z,320
2018-04-29T07:18:48.466Z,315
2018-04-29T07:19:57.427Z,305
2018-04-29T07:21:06.034Z,295
2018-04-29T07:22:14.677Z,295
2018-04-29T07:23:23.327Z,320
2018-04-29T07:24:31.984Z,330
2018-04-29T07:25:40.621Z,345
2018-04-29T07:26:49.269Z,340
2018-04-29T07:27:57.903Z,335
2018-04-29T07:29:06.561Z,325
2018-04-29T07:30:15.208Z,335
2018-04-29T07:31:23.848Z,335
2018-04-29T07:32:32.500Z,315
2018-04-29T07:33:41.151Z,305
2018-04-29T07:34:49.787Z,305
2018-04-29T07:35:58.438Z,300
2018-04-29T07:37:07.096Z,300
2018-04-29T07:38:15.728Z,275
2018-04-29T07:39:24.647Z,265
2018-04-29T07:40:33.550Z,255
2018-04-29T07:41:42.208Z,245
2018-04-29T07:42:50.860Z,235
2018-04-29T07:43:59.507Z,235
2018-04-29T07:45:08.156Z,240
2018-04-29T07:46:16.816Z,245
2018-04-29T07:47:25.450Z,240
2018-04-29T07:48:34.100Z,225
2018-04-29T07:49:42.757Z,220
2018-04-29T07:50:51.398Z,220
2018-04-29T07:52:00.040Z,210
2018-04-29T07:53:08.696Z,180
2018-04-29T07:54:17.343Z,170
2018-04-29T07:55:25.981Z,155
2018-04-29T07:56:34.636Z,140
2018-04-29T07:57:43.284Z,145
2018-04-29T07:58:52.207Z,155
2018-04-29T08:00:00.846Z,155
2018-04-29T08:01:09.501Z,150
2018-04-29T08:02:18.137Z,140
2018-04-29T08:03:26.784Z,140
2018-04-29T08:04:35.444Z,145
2018-04-29T08:05:44.080Z,155
2018-04-29T08:06:52.726Z,165
2018-04-29T08:08:01.382Z,175
2018-04-29T08:09:10.324Z,175
2018-04-29T08:10:18.982Z,170
2018-04-29T08:11:27.623Z,160
2018-04-29T08:12:36.281Z,145
2018-04-29T08:13:44.937Z,145
2018-04-29T08:14:53.573Z,155
2018-04-29T08:16:02.221Z,170
2018-04-29T08:17:10.876Z,195
2018-04-29T08:18:19.514Z,200
2018-04-29T08:19:28.155Z,190
2018-04-29T08:20:37.077Z,170
2018-04-29T08:21:45.724Z,160
2018-04-29T08:22:54.360Z,145
2018-04-29T08:24:03.012Z,125
2018-04-29T08:25:11.656Z,110
2018-04-29T08:26:20.315Z,100
2018-04-29T08:27:28.962Z,100
2018-04-29T08:28:37.601Z,110
2018-04-29T08:29:46.261Z,120
2018-04-29T08:30:54.901Z,120
2018-04-29T08:32:03.804Z,120
2018-04-29T08:33:12.462Z,120
2018-04-29T08:34:21.112Z,130
2018-04-29T08:35:29.745Z,130
2018-04-29T08:36:38.395Z,135
2018-04-29T08:37:47.049Z,140
2018-04-29T08:38:55.697Z,155
2018-04-29T08:40:04.339Z,180
2018-04-29T08:41:12.980Z,200
2018-04-29T08:42:21.638Z,225
2018-04-29T08:43:30.553Z,230
2018-04-29T08:44:39.191Z,210
2018-04-29T08:45:47.843Z,185
2018-04-29T08:46:56.497Z,165
2018-04-29T08:48:05.134Z,150
2018-04-29T08:49:14.049Z,135
2018-04-29T08:50:22.704Z,120
2018-04-29T08:51:31.347Z,110
2018-04-29T08:52:39.988Z,115
2018-04-29T08:53:48.632Z,115
2018-04-29T08:54:57.323Z,130
2018-04-29T08:56:05.957Z,140
2018-04-29T08:57:14.579Z,150
2018-04-29T08:58:23.757Z,190
2018-04-29T08:59:32.409Z,240
2018-04-29T09:00:41.044Z,270
2018-04-29T09:01:49.690Z,295
2018-04-29T09:02:58.349Z,300
2018-04-29T09:04:06.987Z,310
2018-04-29T09:05:15.627Z,300
2018-04-29T09:06:24.286Z,275
2018-04-29T09:07:32.932Z,280
2018-04-29T09:08:41.596Z,315
2018-04-29T09:09:50.499Z,345
2018-04-29T09:10:59.147Z,335
2018-04-29T09:12:07.800Z,335
2018-04-29T09:13:16.476Z,310
2018-04-29T09:14:25.085Z,295
2018-04-29T09:15:33.744Z,270
2018-04-29T09:16:42.656Z,235
2018-04-29T09:17:51.288Z,200
2018-04-29T09:19:00.203Z,170
2018-04-29T09:20:08.848Z,165
2018-04-29T09:21:17.490Z,165
2018-04-29T09:22:26.146Z,180
2018-04-29T09:23:34.787Z,210
2018-04-29T09:24:43.448Z,235
2018-04-29T09:25:52.090Z,260
2018-04-29T09:27:00.727Z,245
2018-04-29T09:28:09.385Z,200
2018-04-29T09:29:18.042Z,170
2018-04-29T09:30:26.673Z,175
2018-04-29T09:31:35.331Z,190
2018-04-29T09:32:43.982Z,180
2018-04-29T09:33:52.620Z,170
2018-04-29T09:35:01.269Z,195
2018-04-29T09:36:10.192Z,220
2018-04-29T09:37:18.834Z,225
2018-04-29T09:38:27.751Z,255
2018-04-29T09:39:36.387Z,275
2018-04-29T09:40:45.040Z,290
2018-04-29T09:41:53.693Z,270
2018-04-29T09:43:02.329Z,265
2018-04-29T09:44:10.981Z,265
2018-04-29T09:45:19.636Z,235
2018-04-29T09:46:28.282Z,190
2018-04-29T09:47:37.191Z,165
2018-04-29T09:48:45.910Z,160
2018-04-29T09:49:54.495Z,140
2018-04-29T09:51:03.140Z,120
2018-04-29T09:52:11.800Z,110
2018-04-29T09:53:20.443Z,100
2018-04-29T09:54:29.077Z,90
2018-04-29T09:55:37.740Z,70
2018-04-29T09:56:46.389Z,60
2018-04-29T09:57:55.028Z,45
2018-04-29T09:59:03.681Z,50
2018-04-29T10:00:12.607Z,65
2018-04-29T10:01:21.242Z,85
2018-04-29T10:02:29.893Z,105
2018-04-29T10:03:38.551Z,125
2018-04-29T10:04:47.200Z,130
2018-04-29T10:05:55.833Z,130
2018-04-29T10:07:04.477Z,140
2018-04-29T10:08:13.129Z,140
2018-04-29T10:09:21.785Z,175
2018-04-29T10:10:30.421Z,220
2018-04-29T10:11:39.338Z,255
2018-04-29T10:12:47.997Z,260
2018-04-29T10:13:56.633Z,265
2018-04-29T10:15:05.278Z,275
2018-04-29T10:16:13.940Z,285
2018-04-29T10:17:22.578Z,290
2018-04-29T10:18:31.218Z,315
2018-04-29T10:19:39.876Z,360
2018-04-29T10:20:48.518Z,390
2018-04-29T10:21:57.181Z,410
2018-04-29T10:23:06.083Z,410
2018-04-29T10:24:14.724Z,405
2018-04-29T10:25:23.380Z,390
2018-04-29T10:26:32.023Z,370
2018-04-29T10:27:40.662Z,350
2018-04-29T10:28:49.324Z,325
2018-04-29T10:29:57.966Z,300
2018-04-29T10:31:06.600Z,280
2018-04-29T10:32:15.263Z,255
2018-04-29T10:33:23.909Z,245
2018-04-29T10:34:32.546Z,245
2018-04-29T10:35:41.200Z,275
2018-04-29T10:36:49.836Z,305
2018-04-29T10:37:58.496Z,335
2018-04-29T10:39:07.143Z,370
2018-04-29T10:40:15.777Z,380
2018-04-29T10:41:24.439Z,390
2018-04-29T10:42:33.091Z,390
2018-04-29T10:43:41.728Z,475
2018-04-29T10:44:50.386Z,420
2018-04-29T10:45:59.307Z,425
2018-04-29T10:47:07.943Z,445
2018-04-29T10:48:16.866Z,420
2018-04-29T10:49:25.538Z,395
2018-04-29T10:50:34.165Z,370
2018-04-29T10:51:42.818Z,355
2018-04-29T10:52:51.458Z,320
2018-04-29T10:54:00.110Z,330
2018-04-29T10:55:08.767Z,350
2018-04-29T10:56:17.404Z,370
2018-04-29T10:57:26.057Z,395
2018-04-29T10:58:34.719Z,440
2018-04-29T10:59:43.355Z,425
2018-04-29T11:00:52.001Z,410
2018-04-29T11:02:00.664Z,390
2018-04-29T11:03:09.307Z,390
2018-04-29T11:04:18.027Z,400
2018-04-29T11:05:26.593Z,395
2018-04-29T11:06:35.247Z,390
2018-04-29T11:07:44.172Z,385
2018-04-29T11:08:52.812Z,330
2018-04-29T11:10:01.460Z,285
2018-04-29T11:11:10.121Z,315
2018-04-29T11:12:18.769Z,285
2018-04-29T11:13:27.411Z,280
2018-04-29T11:14:36.072Z,260
2018-04-29T11:15:44.714Z,230
2018-04-29T11:16:53.361Z,255
2018-04-29T11:18:02.014Z,265
2018-04-29T11:19:10.672Z,285
2018-04-29T11:20:19.589Z,305
2018-04-29T11:21:28.233Z,310
2018-04-29T11:22:36.879Z,235
2018-04-29T11:23:45.544Z,245
2018-04-29T11:24:54.458Z,255
2018-04-29T11:26:03.098Z,270
2018-04-29T11:27:11.759Z,295
2018-04-29T11:28:20.679Z,315
2018-04-29T11:29:29.617Z,355
2018-04-29T11:30:38.267Z,395
2018-04-29T11:31:47.462Z,390
2018-04-29T11:32:56.100Z,385
2018-04-29T11:34:05.122Z,375
2018-04-29T11:35:13.761Z,345
2018-04-29T11:36:22.426Z,345
2018-04-29T11:37:31.075Z,395
2018-04-29T11:38:39.715Z,365
2018-04-29T11:39:48.370Z,320
2018-04-29T11:40:57.039Z,300
2018-04-29T11:42:05.676Z,300
2018-04-29T11:43:14.331Z,315
2018-04-29T11:44:23.268Z,325
2018-04-29T11:45:31.907Z,335
2018-04-29T11:46:40.557Z,350
2018-04-29T11:47:49.296Z,395
2018-04-29T11:48:57.866Z,395
2018-04-29T11:50:06.507Z,380
2018-04-29T11:51:15.707Z,395
2018-04-29T11:52:24.358Z,385
2018-04-29T11:53:32.993Z,365
2018-04-29T11:54:41.655Z,330
2018-04-29T11:55:50.305Z,330
2018-04-29T11:56:58.946Z,330
2018-04-29T11:58:07.602Z,350
2018-04-29T11:59:16.265Z,365
2018-04-29T12:00:24.897Z,370
2018-04-29T12:01:33.552Z,360
2018-04-29T12:02:42.532Z,370
2018-04-29T12:03:51.177Z,370
2018-04-29T12:04:59.827Z,385
2018-04-29T12:06:08.465Z,375
2018-04-29T12:07:17.128Z,380
2018-04-29T12:08:26.052Z,405
2018-04-29T12:09:34.689Z,410
2018-04-29T12:10:43.337Z,400
2018-04-29T12:11:52.002Z,370
2018-04-29T12:13:00.639Z,380
2018-04-29T12:14:09.295Z,350
2018-04-29T12:15:17.950Z,375
2018-04-29T12:16:26.644Z,345
2018-04-29T12:17:35.238Z,295
2018-04-29T12:18:43.892Z,320
2018-04-29T12:19:52.546Z,370
2018-04-29T12:21:01.206Z,335
2018-04-29T12:22:09.897Z,290
2018-04-29T12:23:18.507Z,245
2018-04-29T12:24:27.167Z,255
2018-04-29T12:25:35.809Z,285
2018-04-29T12:26:44.455Z,290
2018-04-29T12:27:53.121Z,230
2018-04-29T12:29:01.777Z,230
2018-04-29T12:30:10.425Z,225
2018-04-29T12:31:19.091Z,225
2018-04-29T12:32:27.741Z,230
2018-04-29T12:33:36.446Z,240
2018-04-29T12:34:45.040Z,255
2018-04-29T12:35:53.689Z,270
2018-04-29T12:37:02.349Z,285
2018-04-29T12:38:11.003Z,310
2018-04-29T12:39:19.644Z,345
2018-04-29T12:40:28.308Z,385
2018-04-29T12:41:36.957Z,435
2018-04-29T12:42:45.600Z,450
2018-04-29T12:43:54.256Z,410
2018-04-29T12:45:02.914Z,340
2018-04-29T12:46:11.551Z,320
2018-04-29T12:47:20.202Z,315
2018-04-29T12:48:29.133Z,325
2018-04-29T12:49:37.772Z,375
2018-04-29T12:50:46.424Z,345
2018-04-29T12:51:55.084Z,355
2018-04-29T12:53:03.733Z,345
2018-04-29T12:54:12.372Z,320
2018-04-29T12:55:21.039Z,300
2018-04-29T12:56:29.687Z,295
2018-04-29T12:57:38.329Z,290
2018-04-29T12:58:46.994Z,290
2018-04-29T12:59:55.650Z,300
2018-04-29T13:01:04.556Z,295
2018-04-29T13:02:13.218Z,295
2018-04-29T13:03:21.863Z,300
2018-04-29T13:04:30.529Z,315
2018-04-29T13:05:39.519Z,355
2018-04-29T13:06:48.380Z,420
2018-04-29T13:07:57.046Z,395
2018-04-29T13:09:05.696Z,350
2018-04-29T13:10:14.339Z,295
2018-04-29T13:11:22.997Z,270
2018-04-29T13:12:31.657Z,230
2018-04-29T13:13:40.295Z,240
2018-04-29T13:14:48.950Z,225
2018-04-29T13:15:57.612Z,215
2018-04-29T13:17:06.254Z,160
2018-04-29T13:18:14.904Z,160
2018-04-29T13:19:23.545Z,190
2018-04-29T13:20:32.206Z,220
2018-04-29T13:21:41.136Z,240
2018-04-29T13:22:49.774Z,260
2018-04-29T13:23:58.425Z,295
2018-04-29T13:25:07.091Z,290
2018-04-29T13:26:15.730Z,310
2018-04-29T13:27:24.382Z,255
2018-04-29T13:28:33.043Z,260
2018-04-29T13:29:41.741Z,205
2018-04-29T13:30:50.332Z,240
2018-04-29T13:31:58.986Z,320
2018-04-29T13:33:07.639Z,245
2018-04-29T13:34:16.302Z,240
2018-04-29T13:35:24.939Z,220
2018-04-29T13:36:33.855Z,255
2018-04-29T13:37:42.781Z,185
2018-04-29T13:38:51.428Z,180
2018-04-29T13:40:00.077Z,210
2018-04-29T13:41:09.274Z,205
2018-04-29T13:42:18.992Z,225
2018-04-29T13:43:27.586Z,235
2018-04-29T13:44:36.248Z,295
2018-04-29T13:45:44.898Z,255
2018-04-29T13:46:53.543Z,225
2018-04-29T13:48:02.202Z,215
2018-04-29T13:49:10.860Z,230
2018-04-29T13:50:19.504Z,240
2018-04-29T13:51:28.156Z,285
2018-04-29T13:52:37.093Z,210
2018-04-29T13:53:45.998Z,210
2018-04-29T13:54:54.919Z,240
2018-04-29T13:56:03.580Z,270
2018-04-29T13:57:12.221Z,335
2018-04-29T13:58:21.130Z,240
2018-04-29T13:59:29.793Z,285
2018-04-29T14:00:38.449Z,275
2018-04-29T14:01:47.378Z,265
2018-04-29T14:02:56.277Z,255
2018-04-29T14:04:04.926Z,230
2018-04-29T14:05:13.591Z,200
2018-04-29T14:06:22.233Z,220
2018-04-29T14:07:30.883Z,210
2018-04-29T14:08:39.544Z,220
2018-04-29T14:09:48.728Z,220
2018-04-29T14:10:57.368Z,225
2018-04-29T14:12:06.031Z,225
2018-04-29T14:13:14.682Z,225
2018-04-29T14:14:23.327Z,230
2018-04-29T14:15:32.250Z,220
2018-04-29T14:16:40.895Z,225
2018-04-29T14:17:49.559Z,235
2018-04-29T14:18:58.209Z,235
2018-04-29T14:20:07.240Z,170
2018-04-29T14:21:15.902Z,170
2018-04-29T14:22:24.941Z,175
2018-04-29T14:23:33.578Z,210
2018-04-29T14:24:42.238Z,260
2018-04-29T14:25:50.893Z,285
2018-04-29T14:26:59.534Z,285
2018-04-29T14:28:08.186Z,290
2018-04-29T14:29:16.848Z,290
2018-04-29T14:30:25.501Z,245
2018-04-29T14:31:34.955Z,290
2018-04-29T14:32:43.870Z,245
2018-04-29T14:33:52.524Z,215
2018-04-29T14:35:01.183Z,205
2018-04-29T14:36:09.827Z,200
2018-04-29T14:37:18.488Z,195
2018-04-29T14:38:27.145Z,230
2018-04-29T14:39:35.788Z,215
2018-04-29T14:40:44.440Z,215
2018-04-29T14:41:53.108Z,205
2018-04-29T14:43:01.749Z,210
2018-04-29T14:44:10.396Z,240
2018-04-29T14:45:19.324Z,200
2018-04-29T14:46:27.975Z,205
2018-04-29T14:47:36.635Z,230
2018-04-29T14:48:45.277Z,270
2018-04-29T14:49:54.195Z,245
2018-04-29T14:51:02.859Z,265
2018-04-29T14:52:11.765Z,265
2018-04-29T14:53:20.409Z,305
2018-04-29T14:54:29.070Z,295
2018-04-29T14:55:37.722Z,310
2018-04-29T14:56:46.360Z,325
2018-04-29T14:57:55.028Z,300
2018-04-29T14:59:03.684Z,260
2018-04-29T15:00:12.337Z,260
2018-04-29T15:01:21.024Z,270
2018-04-29T15:02:29.626Z,235
2018-04-29T15:03:38.287Z,245
2018-04-29T15:04:46.950Z,230
2018-04-29T15:05:55.578Z,215
2018-04-29T15:07:04.243Z,220
2018-04-29T15:08:12.895Z,195
2018-04-29T15:09:21.804Z,195
2018-04-29T15:10:30.798Z,200
2018-04-29T15:11:39.438Z,200
2018-04-29T15:12:48.077Z,195
2018-04-29T15:13:56.727Z,190
2018-04-29T15:15:05.379Z,185
2018-04-29T15:16:14.108Z,190
2018-04-29T15:17:22.700Z,195
2018-04-29T15:18:31.339Z,215
2018-04-29T15:19:39.999Z,240
2018-04-29T15:20:48.658Z,250
2018-04-29T15:21:57.297Z,245
2018-04-29T15:23:05.949Z,265
2018-04-29T15:24:14.619Z,255
2018-04-29T15:25:23.527Z,240
2018-04-29T15:26:32.450Z,225
2018-04-29T15:27:41.115Z,205
2018-04-29T15:28:49.760Z,200
2018-04-29T15:29:58.416Z,195
2018-04-29T15:31:07.059Z,185
2018-04-29T15:32:15.718Z,185
2018-04-29T15:33:24.377Z,175
2018-04-29T15:34:33.021Z,155
2018-04-29T15:35:41.929Z,145
2018-04-29T15:36:50.593Z,125
2018-04-29T15:37:59.237Z,120
2018-04-29T15:39:08.368Z,125
2018-04-29T15:40:17.295Z,130
2018-04-29T15:41:25.947Z,140
2018-04-29T15:42:34.590Z,145
2018-04-29T15:43:43.516Z,140
2018-04-29T15:44:52.173Z,135
2018-04-29T15:46:00.811Z,125
2018-04-29T15:47:09.466Z,115
2018-04-29T15:48:18.125Z,105
2018-04-29T15:49:26.764Z,115
2018-04-29T15:50:35.422Z,130
2018-04-29T15:51:44.357Z,135
2018-04-29T15:52:53.268Z,145
2018-04-29T15:54:01.914Z,145
2018-04-29T15:55:10.582Z,145
2018-04-29T15:56:19.222Z,135
2018-04-29T15:57:27.867Z,130
2018-04-29T15:58:36.521Z,120
2018-04-29T15:59:45.173Z,100
2018-04-29T16:00:54.106Z,95
2018-04-29T16:02:03.007Z,95
2018-04-29T16:03:11.654Z,95
2018-04-29T16:04:20.316Z,95
2018-04-29T16:05:28.962Z,95